createdAt,value
2019-04-04T00:01:29.593Z,8.20
2019-04-04T00:03:58.512Z,8.10
2019-04-04T00:06:27.750Z,8.10
2019-04-04T00:08:57.510Z,8.00
2019-04-04T00:11:26.530Z,8.00
2019-04-04T00:13:55.532Z,7.90
2019-04-04T00:16:24.339Z,7.90
2019-04-04T00:18:53.268Z,7.90
2019-04-04T00:21:22.283Z,7.80
2019-04-04T00:23:51.320Z,7.80
2019-04-04T00:26:20.196Z,7.80
2019-04-04T00:28:49.203Z,7.70
2019-04-04T00:31:19.550Z,7.70
2019-04-04T00:33:48.682Z,7.60
2019-04-04T00:36:17.579Z,7.60
2019-04-04T00:38:46.436Z,7.60
2019-04-04T00:41:15.310Z,7.50
2019-04-04T00:43:44.419Z,7.50
2019-04-04T00:46:13.432Z,7.50
2019-04-04T00:48:42.384Z,7.40
2019-04-04T00:51:11.340Z,7.40
2019-04-04T00:53:42.705Z,7.40
2019-04-04T00:56:10.949Z,7.30
2019-04-04T00:58:39.923Z,7.30
2019-04-04T01:01:08.993Z,7.20
2019-04-04T01:03:37.979Z,7.20
2019-04-04T01:06:06.996Z,7.20
2019-04-04T01:08:38.087Z,7.10
2019-04-04T01:11:06.469Z,7.10
2019-04-04T01:13:35.361Z,7.10
2019-04-04T01:16:04.365Z,7.10
2019-04-04T01:18:34.991Z,7.00
2019-04-04T01:21:05.445Z,7.00
2019-04-04T01:23:34.236Z,7.00
2019-04-04T01:26:03.383Z,7.00
2019-04-04T01:28:33.108Z,7.00
2019-04-04T01:31:01.903Z,6.90
2019-04-04T01:33:30.803Z,6.90
2019-04-04T01:35:59.732Z,6.80
2019-04-04T01:38:29.079Z,6.80
2019-04-04T01:40:58.747Z,6.80
2019-04-04T01:43:27.701Z,6.70
2019-04-04T01:45:56.688Z,6.70
2019-04-04T01:48:25.696Z,6.70
2019-04-04T01:50:54.560Z,6.70
2019-04-04T01:53:23.508Z,6.60
2019-04-04T01:55:52.420Z,6.60
2019-04-04T01:58:21.471Z,6.60
2019-04-04T02:00:50.597Z,6.60
2019-04-04T02:03:22.420Z,6.50
2019-04-04T02:05:52.319Z,6.50
2019-04-04T02:08:21.306Z,6.50
2019-04-04T02:11:09.485Z,6.50
2019-04-04T02:13:38.938Z,6.40
2019-04-04T02:16:09.012Z,6.40
2019-04-04T02:18:37.821Z,6.40
2019-04-04T02:21:06.737Z,6.40
2019-04-04T02:23:35.618Z,6.40
2019-04-04T02:26:05.253Z,6.30
2019-04-04T02:28:34.778Z,6.30
2019-04-04T02:31:05.304Z,6.30
2019-04-04T02:33:34.368Z,6.30
2019-04-04T02:36:03.277Z,6.30
2019-04-04T02:38:32.205Z,6.30
2019-04-04T02:41:00.936Z,6.30
2019-04-04T02:43:29.842Z,6.20
2019-04-04T02:45:58.836Z,6.20
2019-04-04T02:48:27.794Z,6.20
2019-04-04T02:50:56.712Z,6.20
2019-04-04T02:53:25.586Z,6.10
2019-04-04T02:55:54.552Z,6.10
2019-04-04T02:58:23.570Z,6.10
2019-04-04T03:00:52.460Z,6.10
2019-04-04T03:03:21.330Z,6.10
2019-04-04T03:05:51.918Z,6.00
2019-04-04T03:08:20.938Z,6.00
2019-04-04T03:10:49.749Z,6.00
2019-04-04T03:13:18.756Z,6.00
2019-04-04T03:15:48.333Z,5.90
2019-04-04T03:18:17.111Z,5.90
2019-04-04T03:20:49.054Z,5.90
2019-04-04T03:23:16.686Z,5.90
2019-04-04T03:25:47.298Z,5.90
2019-04-04T03:28:16.199Z,5.80
2019-04-04T03:30:52.842Z,5.80
2019-04-04T03:33:15.752Z,5.80
2019-04-04T03:35:44.617Z,5.80
2019-04-04T03:38:14.125Z,5.80
2019-04-04T03:40:43.237Z,5.70
2019-04-04T03:43:15.906Z,5.70
2019-04-04T03:45:42.879Z,5.70
2019-04-04T03:48:16.984Z,5.70
2019-04-04T03:50:42.462Z,5.70
2019-04-04T03:53:16.292Z,5.70
2019-04-04T03:55:42.051Z,5.70
2019-04-04T03:58:10.992Z,5.70
2019-04-04T04:00:40.693Z,5.70
2019-04-04T04:03:09.709Z,5.70
2019-04-04T04:05:40.775Z,5.70
2019-04-04T04:08:09.168Z,5.70
2019-04-04T04:10:37.995Z,5.70
2019-04-04T04:13:07.909Z,5.70
2019-04-04T04:15:36.873Z,5.60
2019-04-04T04:18:05.857Z,5.70
2019-04-04T04:20:37.467Z,5.60
2019-04-04T04:23:05.350Z,5.60
2019-04-04T04:25:36.528Z,5.60
2019-04-04T04:28:05.043Z,5.60
2019-04-04T04:30:33.997Z,5.60
2019-04-04T04:33:03.037Z,5.50
2019-04-04T04:35:32.138Z,5.50
2019-04-04T04:38:01.129Z,5.50
2019-04-04T04:40:29.975Z,5.50
2019-04-04T04:43:00.680Z,5.50
2019-04-04T04:45:29.505Z,5.50
2019-04-04T04:47:58.507Z,5.50
2019-04-04T04:50:27.448Z,5.50
2019-04-04T04:52:56.335Z,5.40
2019-04-04T04:55:27.321Z,5.40
2019-04-04T04:57:56.639Z,5.40
2019-04-04T05:00:27.696Z,5.40
2019-04-04T05:02:56.415Z,5.40
2019-04-04T05:05:25.582Z,5.40
2019-04-04T05:07:55.004Z,5.40
2019-04-04T05:10:24.075Z,5.30
2019-04-04T05:12:53.800Z,5.30
2019-04-04T05:15:22.640Z,5.30
2019-04-04T05:17:51.687Z,5.30
2019-04-04T05:20:20.523Z,5.30
2019-04-04T05:22:49.396Z,5.30
2019-04-04T05:25:18.206Z,5.30
2019-04-04T05:27:51.781Z,5.30
2019-04-04T05:30:20.746Z,5.30
2019-04-04T05:32:49.989Z,5.30
2019-04-04T05:35:20.549Z,5.30
2019-04-04T05:37:49.658Z,5.30
2019-04-04T05:40:18.629Z,5.30
2019-04-04T05:42:47.701Z,5.30
2019-04-04T05:45:16.614Z,5.30
2019-04-04T05:47:45.512Z,5.30
2019-04-04T05:50:16.396Z,5.30
2019-04-04T05:52:44.967Z,5.30
2019-04-04T05:55:13.876Z,5.30
2019-04-04T05:57:42.963Z,5.30
2019-04-04T06:00:14.016Z,5.30
2019-04-04T06:02:43.173Z,5.40
2019-04-04T06:05:12.736Z,5.40
2019-04-04T06:07:41.584Z,5.40
2019-04-04T06:10:12.218Z,5.40
2019-04-04T06:12:41.188Z,5.40
2019-04-04T06:15:10.089Z,5.50
2019-04-04T06:17:39.835Z,5.50
2019-04-04T06:20:09.106Z,5.50
2019-04-04T06:22:38.055Z,5.60
2019-04-04T06:25:07.140Z,5.60
2019-04-04T06:27:36.144Z,5.60
2019-04-04T06:30:05.461Z,5.60
2019-04-04T06:32:34.505Z,5.70
2019-04-04T06:35:03.452Z,5.70
2019-04-04T06:37:34.259Z,5.70
2019-04-04T06:40:02.957Z,5.70
2019-04-04T06:42:35.472Z,5.80
2019-04-04T06:45:02.589Z,5.80
2019-04-04T06:47:32.483Z,5.80
2019-04-04T06:50:01.517Z,5.90
2019-04-04T06:52:30.401Z,5.90
2019-04-04T06:54:59.437Z,6.00
2019-04-04T06:57:28.434Z,6.00
2019-04-04T06:59:57.364Z,6.10
2019-04-04T07:02:26.260Z,6.10
2019-04-04T07:04:55.204Z,6.20
2019-04-04T07:07:24.031Z,6.30
2019-04-04T07:09:52.984Z,6.30
2019-04-04T07:12:28.121Z,6.40
2019-04-04T07:14:52.519Z,6.50
2019-04-04T07:17:21.462Z,6.60
2019-04-04T07:19:50.473Z,6.60
2019-04-04T07:22:20.613Z,6.70
2019-04-04T07:24:49.670Z,6.70
2019-04-04T07:27:18.742Z,6.80
2019-04-04T07:29:47.771Z,6.80
2019-04-04T07:32:16.822Z,6.90
2019-04-04T07:34:45.969Z,7.00
2019-04-04T07:37:14.929Z,7.00
2019-04-04T07:39:43.877Z,7.10
2019-04-04T07:42:15.498Z,7.20
2019-04-04T07:44:43.494Z,7.30
2019-04-04T07:47:15.898Z,7.40
2019-04-04T07:49:43.025Z,7.40
2019-04-04T07:52:11.889Z,7.50
2019-04-04T07:54:40.769Z,7.60
2019-04-04T07:57:09.716Z,7.60
2019-04-04T07:59:38.701Z,7.70
2019-04-04T08:02:07.704Z,7.70
2019-04-04T08:04:36.793Z,7.90
2019-04-04T08:07:05.813Z,8.00
2019-04-04T08:09:34.701Z,8.00
2019-04-04T08:12:03.725Z,8.10
2019-04-04T08:14:32.671Z,8.20
2019-04-04T08:17:01.704Z,8.20
2019-04-04T08:19:30.733Z,8.30
2019-04-04T08:21:59.581Z,8.40
2019-04-04T08:24:28.624Z,8.40
2019-04-04T08:26:57.609Z,8.50
2019-04-04T08:29:26.533Z,8.60
2019-04-04T08:31:55.474Z,8.70
2019-04-04T08:34:24.478Z,8.70
2019-04-04T08:36:53.436Z,8.80
2019-04-04T08:39:22.289Z,8.80
2019-04-04T08:41:52.506Z,8.90
2019-04-04T08:44:21.499Z,9.00
2019-04-04T08:46:50.417Z,9.00
2019-04-04T08:49:19.423Z,9.10
2019-04-04T08:51:48.355Z,9.20
2019-04-04T08:54:21.579Z,9.30
2019-04-04T08:56:50.551Z,9.40
2019-04-04T08:59:19.532Z,9.60
2019-04-04T09:01:48.461Z,9.70
2019-04-04T09:04:17.296Z,9.90
2019-04-04T09:06:46.153Z,10.00
2019-04-04T09:09:15.074Z,10.00
2019-04-04T09:11:44.005Z,10.10
2019-04-04T09:14:12.972Z,10.10
2019-04-04T09:16:41.896Z,10.10
2019-04-04T09:19:10.775Z,10.10
2019-04-04T09:21:39.587Z,10.10
2019-04-04T09:24:08.610Z,10.20
2019-04-04T09:26:37.626Z,10.20
2019-04-04T09:29:06.652Z,10.20
2019-04-04T09:31:55.037Z,10.20
2019-04-04T09:34:24.163Z,10.20
2019-04-04T09:36:53.188Z,10.20
2019-04-04T09:39:22.069Z,10.30
2019-04-04T09:41:50.927Z,10.30
2019-04-04T09:44:19.860Z,10.30
2019-04-04T09:46:49.068Z,10.40
2019-04-04T09:49:18.032Z,10.40
2019-04-04T09:51:47.036Z,10.50
2019-04-04T09:54:19.131Z,10.60
2019-04-04T09:56:46.840Z,10.70
2019-04-04T09:59:15.991Z,10.90
2019-04-04T10:01:44.943Z,11.10
2019-04-04T10:04:13.956Z,11.20
2019-04-04T10:06:42.958Z,11.40
2019-04-04T10:09:15.964Z,11.60
2019-04-04T10:11:44.991Z,11.70
2019-04-04T10:14:15.507Z,11.90
2019-04-04T10:16:45.907Z,12.10
2019-04-04T10:19:14.961Z,12.20
2019-04-04T10:21:43.780Z,12.30
2019-04-04T10:24:12.676Z,12.40
2019-04-04T10:26:41.595Z,12.50
2019-04-04T10:29:10.580Z,12.70
2019-04-04T10:31:39.583Z,12.80
2019-04-04T10:34:08.389Z,12.80
2019-04-04T10:36:37.321Z,12.90
2019-04-04T10:39:08.677Z,13.00
2019-04-04T10:41:37.766Z,13.10
2019-04-04T10:44:06.568Z,13.10
2019-04-04T10:46:35.516Z,13.20
2019-04-04T10:49:04.319Z,13.20
2019-04-04T10:51:33.307Z,13.30
2019-04-04T10:54:02.313Z,13.40
2019-04-04T10:56:31.279Z,13.40
2019-04-04T10:59:00.139Z,13.50
2019-04-04T11:01:28.968Z,13.60
2019-04-04T11:03:57.894Z,13.70
2019-04-04T11:06:26.910Z,13.80
2019-04-04T11:08:55.931Z,13.90
2019-04-04T11:11:24.901Z,14.00
2019-04-04T11:13:53.799Z,14.10
2019-04-04T11:16:30.119Z,14.20
2019-04-04T11:18:53.351Z,14.30
2019-04-04T11:21:22.420Z,14.30
2019-04-04T11:23:51.152Z,14.40
2019-04-04T11:26:20.028Z,14.50
2019-04-04T11:28:48.980Z,14.60
2019-04-04T11:31:17.969Z,14.60
2019-04-04T11:33:46.823Z,14.70
2019-04-04T11:36:15.851Z,14.80
2019-04-04T11:38:44.773Z,14.80
2019-04-04T11:41:13.609Z,14.90
2019-04-04T11:43:42.544Z,15.00
2019-04-04T11:46:11.447Z,15.10
2019-04-04T11:48:40.460Z,15.30
2019-04-04T11:51:09.261Z,15.50
2019-04-04T11:53:38.164Z,15.70
2019-04-04T11:56:07.025Z,15.80
2019-04-04T11:58:36.013Z,16.00
2019-04-04T12:01:07.139Z,16.20
2019-04-04T12:03:36.155Z,16.30
2019-04-04T12:06:05.056Z,16.50
2019-04-04T12:08:34.006Z,16.50
2019-04-04T12:11:02.849Z,16.70
2019-04-04T12:13:31.730Z,16.70
2019-04-04T12:16:00.602Z,16.80
2019-04-04T12:18:29.556Z,16.90
2019-04-04T12:20:58.452Z,16.90
2019-04-04T12:23:27.447Z,16.90
2019-04-04T12:25:56.361Z,17.00
2019-04-04T12:28:25.243Z,17.00
2019-04-04T12:30:54.280Z,17.00
2019-04-04T12:33:23.219Z,17.10
2019-04-04T12:35:52.666Z,17.10
2019-04-04T12:38:21.707Z,17.10
2019-04-04T12:40:50.707Z,17.10
2019-04-04T12:43:19.732Z,17.10
2019-04-04T12:45:48.723Z,17.10
2019-04-04T12:48:17.610Z,17.10
2019-04-04T12:50:48.478Z,17.20
2019-04-04T12:53:17.071Z,17.20
2019-04-04T12:55:46.086Z,17.20
2019-04-04T12:58:15.017Z,17.30
2019-04-04T13:00:44.003Z,17.30
2019-04-04T13:03:13.028Z,17.40
2019-04-04T13:05:42.360Z,17.40
2019-04-04T13:08:11.227Z,17.50
2019-04-04T13:10:40.151Z,17.50
2019-04-04T13:13:09.223Z,17.50
2019-04-04T13:15:38.114Z,17.50
2019-04-04T13:18:07.019Z,17.50
2019-04-04T13:20:35.945Z,17.60
2019-04-04T13:23:04.853Z,17.60
2019-04-04T13:25:33.856Z,17.60
2019-04-04T13:28:02.817Z,17.60
2019-04-04T13:30:31.713Z,17.60
2019-04-04T13:33:00.688Z,17.60
2019-04-04T13:35:29.541Z,17.60
2019-04-04T13:37:58.492Z,17.60
2019-04-04T13:40:27.323Z,17.60
2019-04-04T13:42:56.298Z,17.60
2019-04-04T13:45:26.026Z,17.50
2019-04-04T13:47:55.050Z,17.50
2019-04-04T13:50:24.172Z,17.50
2019-04-04T13:52:53.171Z,17.50
2019-04-04T13:55:22.031Z,17.50
2019-04-04T13:57:50.925Z,17.50
2019-04-04T14:00:20.224Z,17.50
2019-04-04T14:02:49.140Z,17.60
2019-04-04T14:05:18.065Z,17.60
2019-04-04T14:07:46.958Z,17.70
2019-04-04T14:10:17.490Z,17.70
2019-04-04T14:12:46.492Z,17.70
2019-04-04T14:15:15.288Z,17.80
2019-04-04T14:17:46.531Z,17.90
2019-04-04T14:20:15.537Z,18.10
2019-04-04T14:22:44.497Z,18.30
2019-04-04T14:25:13.521Z,18.50
2019-04-04T14:27:42.421Z,18.70
2019-04-04T14:30:11.432Z,18.80
2019-04-04T14:32:40.375Z,19.00
2019-04-04T14:35:09.222Z,19.20
2019-04-04T14:37:38.210Z,19.30
2019-04-04T14:40:07.133Z,19.30
2019-04-04T14:42:36.069Z,19.30
2019-04-04T14:45:06.488Z,19.30
2019-04-04T14:47:36.650Z,19.30
2019-04-04T14:50:07.575Z,19.30
2019-04-04T14:52:39.174Z,19.20
2019-04-04T14:55:07.246Z,19.20
2019-04-04T14:57:37.810Z,19.10
2019-04-04T15:00:08.717Z,19.00
2019-04-04T15:02:37.605Z,18.90
2019-04-04T15:05:06.510Z,18.80
2019-04-04T15:07:37.551Z,18.80
2019-04-04T15:10:06.550Z,18.70
2019-04-04T15:12:35.460Z,18.70
2019-04-04T15:15:04.579Z,18.70
2019-04-04T15:17:33.470Z,18.70
2019-04-04T15:20:02.626Z,18.60
2019-04-04T15:22:32.047Z,18.60
2019-04-04T15:25:01.128Z,18.50
2019-04-04T15:27:30.065Z,18.50
2019-04-04T15:29:59.033Z,18.40
2019-04-04T15:32:27.938Z,18.30
2019-04-04T15:34:56.852Z,18.10
2019-04-04T15:37:25.812Z,18.10
2019-04-04T15:39:54.675Z,17.90
2019-04-04T15:42:23.675Z,17.90
2019-04-04T15:44:52.552Z,17.80
2019-04-04T15:47:21.510Z,17.70
2019-04-04T15:49:50.475Z,17.60
2019-04-04T15:52:19.500Z,17.50
2019-04-04T15:54:48.469Z,17.40
2019-04-04T15:57:17.341Z,17.30
2019-04-04T15:59:46.395Z,17.20
2019-04-04T16:02:15.373Z,17.20
2019-04-04T16:04:44.305Z,17.20
2019-04-04T16:07:13.661Z,17.10
2019-04-04T16:09:42.638Z,17.10
2019-04-04T16:12:11.763Z,17.10
2019-04-04T16:14:40.739Z,17.10
2019-04-04T16:17:09.887Z,17.10
2019-04-04T16:19:38.989Z,17.20
2019-04-04T16:22:07.958Z,17.40
2019-04-04T16:24:37.016Z,17.50
2019-04-04T16:27:05.887Z,17.70
2019-04-04T16:29:34.905Z,17.80
2019-04-04T16:32:03.825Z,17.80
2019-04-04T16:34:32.791Z,17.70
2019-04-04T16:37:02.136Z,17.60
2019-04-04T16:39:31.174Z,17.50
2019-04-04T16:42:02.535Z,17.40
2019-04-04T16:44:30.917Z,17.30
2019-04-04T16:46:59.860Z,17.20
2019-04-04T16:49:28.851Z,17.10
2019-04-04T16:51:58.159Z,16.90
2019-04-04T16:54:27.257Z,16.90
2019-04-04T16:56:56.241Z,16.80
2019-04-04T16:59:25.126Z,16.70
2019-04-04T17:01:53.937Z,16.60
2019-04-04T17:04:22.937Z,16.60
2019-04-04T17:06:54.488Z,16.50
2019-04-04T17:09:22.409Z,16.40
2019-04-04T17:11:51.344Z,16.40
2019-04-04T17:14:20.291Z,16.30
2019-04-04T17:16:49.284Z,16.20
2019-04-04T17:19:18.285Z,16.20
2019-04-04T17:21:47.187Z,16.10
2019-04-04T17:24:16.087Z,16.00
2019-04-04T17:26:45.120Z,16.00
2019-04-04T17:29:14.147Z,15.90
2019-04-04T17:31:43.363Z,15.80
2019-04-04T17:34:12.478Z,15.80
2019-04-04T17:36:41.440Z,15.70
2019-04-04T17:39:10.309Z,15.60
2019-04-04T17:41:39.761Z,15.60
2019-04-04T17:44:09.115Z,15.50
2019-04-04T17:46:37.982Z,15.40
2019-04-04T17:49:06.968Z,15.30
2019-04-04T17:51:36.582Z,15.20
2019-04-04T17:54:05.994Z,15.10
2019-04-04T17:56:37.559Z,15.00
2019-04-04T17:59:08.651Z,14.90
2019-04-04T18:01:37.626Z,14.80
2019-04-04T18:04:06.570Z,14.80
2019-04-04T18:06:35.541Z,14.70
2019-04-04T18:09:06.643Z,14.60
2019-04-04T18:11:35.594Z,14.50
2019-04-04T18:14:04.519Z,14.40
2019-04-04T18:16:33.550Z,14.30
2019-04-04T18:19:02.611Z,14.30
2019-04-04T18:21:31.551Z,14.20
2019-04-04T18:24:00.565Z,14.10
2019-04-04T18:26:29.609Z,14.00
2019-04-04T18:28:58.684Z,14.00
2019-04-04T18:31:27.657Z,13.90
2019-04-04T18:33:56.671Z,13.80
2019-04-04T18:36:25.859Z,13.80
2019-04-04T18:38:54.805Z,13.70
2019-04-04T18:41:23.763Z,13.60
2019-04-04T18:43:52.899Z,13.60
2019-04-04T18:46:22.057Z,13.50
2019-04-04T18:48:51.281Z,13.40
2019-04-04T18:51:20.278Z,13.40
2019-04-04T18:53:49.293Z,13.30
2019-04-04T18:56:18.396Z,13.20
2019-04-04T18:58:47.371Z,13.20
2019-04-04T19:01:35.563Z,13.10
2019-04-04T19:04:04.561Z,13.10
2019-04-04T19:06:33.706Z,13.00
2019-04-04T19:09:14.385Z,13.00
2019-04-04T19:11:34.823Z,12.90
2019-04-04T19:14:03.868Z,12.80
2019-04-04T19:16:32.856Z,12.80
2019-04-04T19:19:02.861Z,12.80
2019-04-04T19:21:33.814Z,12.70
2019-04-04T19:24:02.839Z,12.70
2019-04-04T19:26:31.816Z,12.60
2019-04-04T19:29:00.942Z,12.60
2019-04-04T19:31:29.839Z,12.50
2019-04-04T19:33:58.889Z,12.50
2019-04-04T19:36:27.853Z,12.40
2019-04-04T19:38:56.811Z,12.40
2019-04-04T19:41:25.907Z,12.30
2019-04-04T19:43:54.886Z,12.30
2019-04-04T19:46:36.329Z,12.20
2019-04-04T19:48:54.611Z,12.20
2019-04-04T19:51:23.612Z,12.20
2019-04-04T19:53:52.451Z,12.10
2019-04-04T19:56:21.442Z,12.10
2019-04-04T19:58:50.495Z,12.00
2019-04-04T20:01:19.544Z,12.00
2019-04-04T20:03:48.693Z,12.00
2019-04-04T20:06:17.543Z,12.00
2019-04-04T20:08:46.391Z,11.90
2019-04-04T20:11:15.357Z,11.90
2019-04-04T20:13:47.392Z,11.80
2019-04-04T20:16:35.635Z,11.80
2019-04-04T20:19:04.553Z,11.70
2019-04-04T20:21:33.412Z,11.60
2019-04-04T20:24:02.360Z,11.50
2019-04-04T20:26:31.303Z,11.50
2019-04-04T20:29:00.158Z,11.50
2019-04-04T20:31:29.118Z,11.40
2019-04-04T20:34:01.909Z,11.40
2019-04-04T20:36:28.774Z,11.30
2019-04-04T20:38:57.793Z,11.30
2019-04-04T20:41:26.776Z,11.30
2019-04-04T20:43:57.036Z,11.30
2019-04-04T20:46:25.991Z,11.20
2019-04-04T20:48:54.974Z,11.20
2019-04-04T20:51:24.999Z,11.20
2019-04-04T20:53:53.958Z,11.10
2019-04-04T20:56:22.909Z,11.10
2019-04-04T20:58:51.949Z,11.10
2019-04-04T21:01:21.037Z,11.10
2019-04-04T21:03:50.083Z,11.00
2019-04-04T21:06:19.144Z,11.00
2019-04-04T21:08:48.080Z,11.00
2019-04-04T21:13:40.457Z,10.90
2019-04-04T21:16:09.435Z,10.80
2019-04-04T21:18:38.404Z,10.80
2019-04-04T21:21:07.459Z,10.70
2019-04-04T21:23:36.336Z,10.70
2019-04-04T21:26:05.350Z,10.70
2019-04-04T21:28:34.288Z,10.60
2019-04-04T21:31:03.220Z,10.60
2019-04-04T21:33:32.242Z,10.60
2019-04-04T21:36:01.077Z,10.50
2019-04-04T21:38:30.075Z,10.40
2019-04-04T21:40:59.172Z,10.40
2019-04-04T21:43:28.045Z,10.40
2019-04-04T21:45:56.951Z,10.30
2019-04-04T21:48:25.976Z,10.30
2019-04-04T21:50:54.871Z,10.20
2019-04-04T21:53:23.956Z,10.20
2019-04-04T21:55:52.809Z,10.10
2019-04-04T21:58:24.032Z,10.10
2019-04-04T22:00:52.473Z,10.00
2019-04-04T22:03:21.407Z,10.00
2019-04-04T22:05:50.521Z,9.90
2019-04-04T22:08:19.487Z,9.90
2019-04-04T22:10:48.533Z,9.80
2019-04-04T22:13:17.505Z,9.80
2019-04-04T22:15:46.545Z,9.70
2019-04-04T22:18:15.334Z,9.70
2019-04-04T22:20:44.317Z,9.60
2019-04-04T22:23:13.261Z,9.60
2019-04-04T22:25:42.304Z,9.50
2019-04-04T22:28:11.374Z,9.50
2019-04-04T22:30:40.393Z,9.50
2019-04-04T22:33:09.389Z,9.40
2019-04-04T22:35:38.420Z,9.40
2019-04-04T22:38:07.280Z,9.40
2019-04-04T22:40:36.292Z,9.30
2019-04-04T22:43:05.327Z,9.30
2019-04-04T22:45:34.294Z,9.20
2019-04-04T22:48:03.295Z,9.20
2019-04-04T22:50:32.156Z,9.20
2019-04-04T22:53:01.099Z,9.20
2019-04-04T22:55:30.112Z,9.10
2019-04-04T22:57:59.029Z,9.10
2019-04-04T23:00:28.059Z,9.10
2019-04-04T23:02:57.571Z,9.00
2019-04-04T23:05:26.496Z,9.00
2019-04-04T23:07:55.426Z,8.90
2019-04-04T23:10:24.329Z,8.90
2019-04-04T23:12:53.362Z,8.90
2019-04-04T23:15:22.313Z,8.90
2019-04-04T23:17:51.362Z,8.90
2019-04-04T23:20:20.340Z,8.80
2019-04-04T23:22:53.119Z,8.80
2019-04-04T23:25:19.960Z,8.80
2019-04-04T23:27:48.850Z,8.70
2019-04-04T23:30:17.957Z,8.70
2019-04-04T23:32:46.925Z,8.70
2019-04-04T23:35:16.791Z,8.60
2019-04-04T23:37:45.904Z,8.60
2019-04-04T23:40:14.981Z,8.60
2019-04-04T23:42:43.956Z,8.60
2019-04-04T23:45:12.956Z,8.50
2019-04-04T23:47:43.593Z,8.50
2019-04-04T23:50:12.636Z,8.50
2019-04-04T23:52:41.616Z,8.50
2019-04-04T23:55:10.633Z,8.40
2019-04-04T23:57:39.623Z,8.40
